sensor_id;sensor_type;location;lat;lon;timestamp;pressure;altitude;pressure_sealevel;temperature;humidity
14383;BME280;7275;50.328;8.720;2022-12-26T00:01:56;99437.94;;;16.43;54.32
14383;BME280;7275;50.328;8.720;2022-12-26T00:04:25;99416.59;;;16.43;54.45
14383;BME280;7275;50.328;8.720;2022-12-26T00:07:14;99421.94;;;16.43;54.36
14383;BME280;7275;50.328;8.720;2022-12-26T00:09:41;99421.94;;;16.43;54.31
14383;BME280;7275;50.328;8.720;2022-12-26T00:12:09;99399.63;;;16.44;54.21
14383;BME280;7275;50.328;8.720;2022-12-26T00:14:37;99404.94;;;16.44;54.23
14383;BME280;7275;50.328;8.720;2022-12-26T00:17:05;99403.16;;;16.45;54.14
14383;BME280;7275;50.328;8.720;2022-12-26T00:19:32;99410.28;;;16.44;54.10
14383;BME280;7275;50.328;8.720;2022-12-26T00:22:00;99400.59;;;16.43;54.12
14383;BME280;7275;50.328;8.720;2022-12-26T00:24:29;99404.94;;;16.44;54.15
14383;BME280;7275;50.328;8.720;2022-12-26T00:26:57;99400.47;;;16.45;54.09
14383;BME280;7275;50.328;8.720;2022-12-26T00:29:24;99391.50;;;16.46;54.22
14383;BME280;7275;50.328;8.720;2022-12-26T00:31:51;99404.84;;;16.46;53.90
14383;BME280;7275;50.328;8.720;2022-12-26T00:34:19;99386.28;;;16.44;54.08
14383;BME280;7275;50.328;8.720;2022-12-26T00:36:47;99383.50;;;16.46;54.02
14383;BME280;7275;50.328;8.720;2022-12-26T00:39:14;99398.66;;;16.45;53.91
14383;BME280;7275;50.328;8.720;2022-12-26T00:41:44;99397.81;;;16.45;54.05
14383;BME280;7275;50.328;8.720;2022-12-26T00:44:11;99407.44;;;16.47;54.03
14383;BME280;7275;50.328;8.720;2022-12-26T00:46:39;99397.81;;;16.45;53.98
14383;BME280;7275;50.328;8.720;2022-12-26T00:49:06;99396.00;;;16.45;54.01
14383;BME280;7275;50.328;8.720;2022-12-26T00:51:34;99404.00;;;16.45;53.88
14383;BME280;7275;50.328;8.720;2022-12-26T00:54:01;99408.47;;;16.45;53.81
14383;BME280;7275;50.328;8.720;2022-12-26T00:56:29;99401.22;;;16.47;54.15
14383;BME280;7275;50.328;8.720;2022-12-26T00:58:58;99406.56;;;16.47;54.13
14383;BME280;7275;50.328;8.720;2022-12-26T01:01:25;99402.97;;;16.48;53.98
14383;BME280;7275;50.328;8.720;2022-12-26T01:03:56;99397.63;;;16.48;53.90
14383;BME280;7275;50.328;8.720;2022-12-26T01:06:24;99387.78;;;16.48;53.72
14383;BME280;7275;50.328;8.720;2022-12-26T01:08:52;99398.44;;;16.48;53.76
14383;BME280;7275;50.328;8.720;2022-12-26T01:11:20;99403.78;;;16.48;54.03
14383;BME280;7275;50.328;8.720;2022-12-26T01:14:03;99402.88;;;16.49;53.94
14383;BME280;7275;50.328;8.720;2022-12-26T01:16:31;99411.78;;;16.48;53.98
14383;BME280;7275;50.328;8.720;2022-12-26T01:18:58;99411.75;;;16.50;53.71
14383;BME280;7275;50.328;8.720;2022-12-26T01:21:26;99401.06;;;16.50;53.64
14383;BME280;7275;50.328;8.720;2022-12-26T01:23:53;99413.44;;;16.51;53.66
14383;BME280;7275;50.328;8.720;2022-12-26T01:26:21;99422.44;;;16.50;53.68
14383;BME280;7275;50.328;8.720;2022-12-26T01:28:49;99421.44;;;16.51;53.94
14383;BME280;7275;50.328;8.720;2022-12-26T01:31:20;99414.31;;;16.51;53.71
14383;BME280;7275;50.328;8.720;2022-12-26T01:33:49;99408.84;;;16.53;53.73
14383;BME280;7275;50.328;8.720;2022-12-26T01:36:17;99423.06;;;16.53;53.65
14383;BME280;7275;50.328;8.720;2022-12-26T01:38:45;99413.16;;;16.55;53.82
14383;BME280;7275;50.328;8.720;2022-12-26T01:41:13;99405.16;;;16.55;53.66
14383;BME280;7275;50.328;8.720;2022-12-26T01:43:48;99421.91;;;16.57;53.80
14383;BME280;7275;50.328;8.720;2022-12-26T01:46:20;99422.78;;;16.58;53.49
14383;BME280;7275;50.328;8.720;2022-12-26T01:48:49;99419.13;;;16.59;53.57
14383;BME280;7275;50.328;8.720;2022-12-26T01:51:18;99443.06;;;16.60;53.42
14383;BME280;7275;50.328;8.720;2022-12-26T01:53:48;99435.91;;;16.61;53.29
14383;BME280;7275;50.328;8.720;2022-12-26T01:56:22;99431.41;;;16.61;53.46
14383;BME280;7275;50.328;8.720;2022-12-26T01:58:55;99468.78;;;16.61;53.52
14383;BME280;7275;50.328;8.720;2022-12-26T02:01:28;99444.66;;;16.63;53.44
14383;BME280;7275;50.328;8.720;2022-12-26T02:04:25;99443.06;;;16.60;53.50
14383;BME280;7275;50.328;8.720;2022-12-26T02:07:12;99439.63;;;16.58;53.56
14383;BME280;7275;50.328;8.720;2022-12-26T02:13:54;99449.53;;;16.56;53.58
14383;BME280;7275;50.328;8.720;2022-12-26T02:16:22;99452.19;;;16.56;53.67
14383;BME280;7275;50.328;8.720;2022-12-26T02:18:52;99453.81;;;16.59;53.54
14383;BME280;7275;50.328;8.720;2022-12-26T02:21:31;99446.50;;;16.62;53.54
14383;BME280;7275;50.328;8.720;2022-12-26T02:24:26;99446.28;;;16.65;53.47
14383;BME280;7275;50.328;8.720;2022-12-26T02:27:09;99457.69;;;16.67;53.40
14383;BME280;7275;50.328;8.720;2022-12-26T02:30:03;99453.22;;;16.68;53.52
14383;BME280;7275;50.328;8.720;2022-12-26T02:33:00;99453.22;;;16.68;53.28
14383;BME280;7275;50.328;8.720;2022-12-26T02:35:43;99456.66;;;16.70;53.31
14383;BME280;7275;50.328;8.720;2022-12-26T02:38:23;99445.09;;;16.69;53.33
14383;BME280;7275;50.328;8.720;2022-12-26T02:41:00;99460.94;;;16.72;53.48
14383;BME280;7275;50.328;8.720;2022-12-26T02:43:36;99465.22;;;16.75;53.26
14383;BME280;7275;50.328;8.720;2022-12-26T02:46:13;99460.72;;;16.75;53.23
14383;BME280;7275;50.328;8.720;2022-12-26T02:49:11;99458.03;;;16.75;53.16
14383;BME280;7275;50.328;8.720;2022-12-26T02:51:52;99445.56;;;16.76;53.16
14383;BME280;7275;50.328;8.720;2022-12-26T02:54:44;99455.50;;;16.74;53.27
14383;BME280;7275;50.328;8.720;2022-12-26T02:57:36;99457.28;;;16.73;53.21
14383;BME280;7275;50.328;8.720;2022-12-26T03:00:25;99462.75;;;16.72;53.33
14383;BME280;7275;50.328;8.720;2022-12-26T03:03:14;99461.88;;;16.71;53.04
14383;BME280;7275;50.328;8.720;2022-12-26T03:06:04;99459.31;;;16.70;53.28
14383;BME280;7275;50.328;8.720;2022-12-26T03:08:54;99457.50;;;16.70;53.14
14383;BME280;7275;50.328;8.720;2022-12-26T03:11:44;99439.78;;;16.69;53.15
14383;BME280;7275;50.328;8.720;2022-12-26T03:14:35;99444.25;;;16.69;53.32
14383;BME280;7275;50.328;8.720;2022-12-26T03:17:06;99445.09;;;16.69;53.07
14383;BME280;7275;50.328;8.720;2022-12-26T03:19:47;99429.09;;;16.69;53.17
14383;BME280;7275;50.328;8.720;2022-12-26T03:22:34;99447.78;;;16.69;53.25
14383;BME280;7275;50.328;8.720;2022-12-26T03:25:05;99439.78;;;16.69;53.15
14383;BME280;7275;50.328;8.720;2022-12-26T03:27:52;99455.78;;;16.69;53.09
14383;BME280;7275;50.328;8.720;2022-12-26T03:30:20;99439.66;;;16.71;53.10
14383;BME280;7275;50.328;8.720;2022-12-26T03:33:06;99455.78;;;16.69;53.08
14383;BME280;7275;50.328;8.720;2022-12-26T03:35:54;99455.69;;;16.71;53.19
14383;BME280;7275;50.328;8.720;2022-12-26T03:38:28;99441.50;;;16.70;53.21
14383;BME280;7275;50.328;8.720;2022-12-26T03:41:05;99438.72;;;16.72;53.23
14383;BME280;7275;50.328;8.720;2022-12-26T03:44:12;99428.97;;;16.71;53.23
14383;BME280;7275;50.328;8.720;2022-12-26T03:47:24;99431.00;;;16.67;53.13
14383;BME280;7275;50.328;8.720;2022-12-26T03:50:17;99433.78;;;16.66;53.27
14383;BME280;7275;50.328;8.720;2022-12-26T03:53:09;99433.03;;;16.64;53.21
14383;BME280;7275;50.328;8.720;2022-12-26T03:56:04;99434.94;;;16.62;53.04
14383;BME280;7275;50.328;8.720;2022-12-26T03:58:56;99433.34;;;16.59;53.13
14383;BME280;7275;50.328;8.720;2022-12-26T04:01:44;99439.84;;;16.55;53.05
14383;BME280;7275;50.328;8.720;2022-12-26T04:04:33;99441.09;;;16.50;53.25
14383;BME280;7275;50.328;8.720;2022-12-26T04:07:24;99430.59;;;16.47;53.27
14383;BME280;7275;50.328;8.720;2022-12-26T04:10:26;99425.53;;;16.42;53.04
14383;BME280;7275;50.328;8.720;2022-12-26T04:13:18;99445.38;;;16.38;53.11
14383;BME280;7275;50.328;8.720;2022-12-26T04:16:09;99447.50;;;16.33;53.47
14383;BME280;7275;50.328;8.720;2022-12-26T04:19:05;99443.22;;;16.31;53.27
14383;BME280;7275;50.328;8.720;2022-12-26T04:21:56;99443.50;;;16.26;53.28
14383;BME280;7275;50.328;8.720;2022-12-26T04:24:46;99452.66;;;16.22;53.42
14383;BME280;7275;50.328;8.720;2022-12-26T04:27:34;99452.00;;;16.19;53.40
14383;BME280;7275;50.328;8.720;2022-12-26T04:30:21;99455.81;;;16.15;53.11
14383;BME280;7275;50.328;8.720;2022-12-26T04:33:10;99445.34;;;16.12;53.26
14383;BME280;7275;50.328;8.720;2022-12-26T04:36:01;99455.25;;;16.10;53.50
14383;BME280;7275;50.328;8.720;2022-12-26T04:38:52;99470.59;;;16.06;53.33
14383;BME280;7275;50.328;8.720;2022-12-26T04:41:39;99465.44;;;16.03;53.59
14383;BME280;7275;50.328;8.720;2022-12-26T04:44:26;99468.41;;;15.98;53.60
14383;BME280;7275;50.328;8.720;2022-12-26T04:46:56;99470.19;;;15.98;53.68
14383;BME280;7275;50.328;8.720;2022-12-26T04:49:24;99486.19;;;15.98;53.61
14383;BME280;7275;50.328;8.720;2022-12-26T04:52:12;99481.94;;;15.95;53.72
14383;BME280;7275;50.328;8.720;2022-12-26T04:54:40;99467.75;;;15.95;53.70
14383;BME280;7275;50.328;8.720;2022-12-26T04:57:09;99469.44;;;15.96;53.65
14383;BME280;7275;50.328;8.720;2022-12-26T04:59:36;99478.19;;;15.98;53.72
14383;BME280;7275;50.328;8.720;2022-12-26T05:02:05;99465.84;;;15.97;53.68
14383;BME280;7275;50.328;8.720;2022-12-26T05:04:51;99461.44;;;15.96;53.84
14383;BME280;7275;50.328;8.720;2022-12-26T05:07:36;99462.31;;;15.96;53.80
14383;BME280;7275;50.328;8.720;2022-12-26T05:10:23;99449.84;;;15.97;53.74
14383;BME280;7275;50.328;8.720;2022-12-26T05:12:51;99448.69;;;16.01;53.88
14383;BME280;7275;50.328;8.720;2022-12-26T05:15:19;99426.31;;;16.04;53.95
14383;BME280;7275;50.328;8.720;2022-12-26T05:17:48;99425.16;;;16.08;53.55
14383;BME280;7275;50.328;8.720;2022-12-26T05:20:33;99428.59;;;16.10;53.72
14383;BME280;7275;50.328;8.720;2022-12-26T05:23:20;99428.47;;;16.11;53.66
14383;BME280;7275;50.328;8.720;2022-12-26T05:26:08;99457.72;;;16.13;53.72
14383;BME280;7275;50.328;8.720;2022-12-26T05:28:59;99471.03;;;16.13;53.65
14383;BME280;7275;50.328;8.720;2022-12-26T05:31:29;99470.09;;;16.14;53.70
14383;BME280;7275;50.328;8.720;2022-12-26T05:34:03;99459.16;;;16.18;53.75
14383;BME280;7275;50.328;8.720;2022-12-26T05:36:36;99477.72;;;16.20;53.73
14383;BME280;7275;50.328;8.720;2022-12-26T05:39:04;99486.47;;;16.22;53.84
14383;BME280;7275;50.328;8.720;2022-12-26T05:41:32;99489.91;;;16.24;53.67
14383;BME280;7275;50.328;8.720;2022-12-26T05:43:59;99484.28;;;16.28;53.81
14383;BME280;7275;50.328;8.720;2022-12-26T05:46:27;99480.47;;;16.32;53.72
14383;BME280;7275;50.328;8.720;2022-12-26T05:48:54;99490.84;;;16.37;53.83
14383;BME280;7275;50.328;8.720;2022-12-26T05:51:24;99495.88;;;16.41;53.90
14383;BME280;7275;50.328;8.720;2022-12-26T05:53:52;99491.19;;;16.45;53.80
14383;BME280;7275;50.328;8.720;2022-12-26T05:56:19;99494.50;;;16.48;53.60
14383;BME280;7275;50.328;8.720;2022-12-26T05:58:52;99484.63;;;16.50;53.80
14383;BME280;7275;50.328;8.720;2022-12-26T06:01:20;99498.53;;;16.55;53.38
14383;BME280;7275;50.328;8.720;2022-12-26T06:03:50;99493.84;;;16.59;53.57
14383;BME280;7275;50.328;8.720;2022-12-26T06:06:18;99477.66;;;16.62;53.29
14383;BME280;7275;50.328;8.720;2022-12-26T06:08:48;99477.34;;;16.66;53.36
14383;BME280;7275;50.328;8.720;2022-12-26T06:11:17;99472.78;;;16.68;53.17
14383;BME280;7275;50.328;8.720;2022-12-26T06:13:45;99493.16;;;16.69;53.31
14383;BME280;7275;50.328;8.720;2022-12-26T06:16:14;99476.19;;;16.70;53.29
14383;BME280;7275;50.328;8.720;2022-12-26T06:18:42;99495.81;;;16.69;53.34
14383;BME280;7275;50.328;8.720;2022-12-26T06:21:12;99496.59;;;16.71;53.23
14383;BME280;7275;50.328;8.720;2022-12-26T06:23:40;99501.81;;;16.73;53.20
14383;BME280;7275;50.328;8.720;2022-12-26T06:26:09;99498.19;;;16.74;53.36
14383;BME280;7275;50.328;8.720;2022-12-26T06:28:38;99503.44;;;16.75;53.28
14383;BME280;7275;50.328;8.720;2022-12-26T06:31:08;99484.66;;;16.77;53.20
14383;BME280;7275;50.328;8.720;2022-12-26T06:33:36;99506.78;;;16.79;53.25
14383;BME280;7275;50.328;8.720;2022-12-26T06:36:06;99516.38;;;16.82;53.17
14383;BME280;7275;50.328;8.720;2022-12-26T06:38:34;99519.91;;;16.82;53.37
14383;BME280;7275;50.328;8.720;2022-12-26T06:41:03;99511.78;;;16.84;53.23
14383;BME280;7275;50.328;8.720;2022-12-26T06:43:32;99515.44;;;16.83;53.26
14383;BME280;7275;50.328;8.720;2022-12-26T06:46:01;99506.56;;;16.82;53.11
14383;BME280;7275;50.328;8.720;2022-12-26T06:48:29;99500.28;;;16.83;53.08
14383;BME280;7275;50.328;8.720;2022-12-26T06:50:57;99509.34;;;16.81;53.20
14383;BME280;7275;50.328;8.720;2022-12-26T06:53:24;99496.00;;;16.81;53.16
14383;BME280;7275;50.328;8.720;2022-12-26T06:55:52;99504.75;;;16.83;53.26
14383;BME280;7275;50.328;8.720;2022-12-26T06:58:19;99525.13;;;16.84;53.27
14383;BME280;7275;50.328;8.720;2022-12-26T07:00:48;99526.97;;;16.83;53.15
14383;BME280;7275;50.328;8.720;2022-12-26T07:03:15;99514.56;;;16.82;53.06
14383;BME280;7275;50.328;8.720;2022-12-26T07:05:43;99514.56;;;16.82;53.14
14383;BME280;7275;50.328;8.720;2022-12-26T07:08:10;99500.28;;;16.83;53.33
14383;BME280;7275;50.328;8.720;2022-12-26T07:10:38;99518.09;;;16.83;53.21
14383;BME280;7275;50.328;8.720;2022-12-26T07:13:05;99511.91;;;16.82;53.17
14383;BME280;7275;50.328;8.720;2022-12-26T07:15:33;99517.34;;;16.81;53.18
14383;BME280;7275;50.328;8.720;2022-12-26T07:18:02;99517.34;;;16.81;53.12
14383;BME280;7275;50.328;8.720;2022-12-26T07:20:29;99520.97;;;16.79;52.91
14383;BME280;7275;50.328;8.720;2022-12-26T07:22:57;99514.88;;;16.77;53.17
14383;BME280;7275;50.328;8.720;2022-12-26T07:25:24;99516.59;;;16.78;53.27
14383;BME280;7275;50.328;8.720;2022-12-26T07:27:52;99517.47;;;16.79;53.18
14383;BME280;7275;50.328;8.720;2022-12-26T07:30:20;99524.59;;;16.78;53.29
14383;BME280;7275;50.328;8.720;2022-12-26T07:32:47;99518.41;;;16.78;53.23
14383;BME280;7275;50.328;8.720;2022-12-26T07:35:16;99511.34;;;16.77;53.17
14383;BME280;7275;50.328;8.720;2022-12-26T07:37:43;99524.03;;;16.73;53.13
14383;BME280;7275;50.328;8.720;2022-12-26T07:40:12;99525.06;;;16.71;53.42
14383;BME280;7275;50.328;8.720;2022-12-26T07:42:39;99545.69;;;16.69;53.34
14383;BME280;7275;50.328;8.720;2022-12-26T07:45:07;99553.91;;;16.66;53.40
14383;BME280;7275;50.328;8.720;2022-12-26T07:47:35;99549.50;;;16.65;53.38
14383;BME280;7275;50.328;8.720;2022-12-26T07:50:03;99550.59;;;16.62;53.53
14383;BME280;7275;50.328;8.720;2022-12-26T07:52:32;99555.16;;;16.60;53.78
14383;BME280;7275;50.328;8.720;2022-12-26T07:54:59;99555.34;;;16.57;53.51
14383;BME280;7275;50.328;8.720;2022-12-26T07:57:27;99575.94;;;16.55;53.66
14383;BME280;7275;50.328;8.720;2022-12-26T08:00:14;99571.00;;;16.49;53.73
14383;BME280;7275;50.328;8.720;2022-12-26T08:02:42;99587.16;;;16.46;53.91
14383;BME280;7275;50.328;8.720;2022-12-26T08:05:10;99577.53;;;16.44;53.91
14383;BME280;7275;50.328;8.720;2022-12-26T08:07:38;99587.38;;;16.43;53.97
14383;BME280;7275;50.328;8.720;2022-12-26T08:10:06;99588.19;;;16.44;53.95
14383;BME280;7275;50.328;8.720;2022-12-26T08:12:34;99587.44;;;16.42;54.08
14383;BME280;7275;50.328;8.720;2022-12-26T08:15:02;99577.63;;;16.42;54.02
14383;BME280;7275;50.328;8.720;2022-12-26T08:17:29;99594.59;;;16.41;53.98
14383;BME280;7275;50.328;8.720;2022-12-26T08:19:58;99594.50;;;16.43;54.29
14383;BME280;7275;50.328;8.720;2022-12-26T08:22:26;99586.50;;;16.43;54.15
14383;BME280;7275;50.328;8.720;2022-12-26T08:24:54;99570.47;;;16.43;54.21
14383;BME280;7275;50.328;8.720;2022-12-26T08:27:22;99561.50;;;16.44;54.24
14383;BME280;7275;50.328;8.720;2022-12-26T08:29:49;99529.50;;;16.44;54.15
14383;BME280;7275;50.328;8.720;2022-12-26T08:32:17;99508.25;;;16.42;54.39
14383;BME280;7275;50.328;8.720;2022-12-26T08:34:44;99526.94;;;16.42;54.24
14383;BME280;7275;50.328;8.720;2022-12-26T08:37:12;99528.72;;;16.42;54.43
14383;BME280;7275;50.328;8.720;2022-12-26T08:39:39;99530.66;;;16.40;54.31
14383;BME280;7275;50.328;8.720;2022-12-26T08:42:08;99536.94;;;16.39;54.39
14383;BME280;7275;50.328;8.720;2022-12-26T08:44:36;99554.88;;;16.37;54.64
14383;BME280;7275;50.328;8.720;2022-12-26T08:47:03;99545.25;;;16.34;54.64
14383;BME280;7275;50.328;8.720;2022-12-26T08:49:31;99555.91;;;16.34;54.82
14383;BME280;7275;50.328;8.720;2022-12-26T08:51:58;99584.41;;;16.34;54.84
14383;BME280;7275;50.328;8.720;2022-12-26T08:54:26;99587.94;;;16.34;54.52
14383;BME280;7275;50.328;8.720;2022-12-26T08:56:53;99582.47;;;16.36;54.74
14383;BME280;7275;50.328;8.720;2022-12-26T08:59:23;99585.06;;;16.37;54.62
14383;BME280;7275;50.328;8.720;2022-12-26T09:01:50;99596.59;;;16.38;54.77
14383;BME280;7275;50.328;8.720;2022-12-26T09:04:18;99599.25;;;16.38;54.80
14383;BME280;7275;50.328;8.720;2022-12-26T09:06:45;99610.78;;;16.38;54.67
14383;BME280;7275;50.328;8.720;2022-12-26T09:09:13;99613.56;;;16.37;54.74
14383;BME280;7275;50.328;8.720;2022-12-26T09:11:41;99613.56;;;16.37;55.10
14383;BME280;7275;50.328;8.720;2022-12-26T09:14:10;99613.66;;;16.35;54.89
14383;BME280;7275;50.328;8.720;2022-12-26T09:16:40;99609.16;;;16.36;54.81
14383;BME280;7275;50.328;8.720;2022-12-26T09:19:16;99610.13;;;16.35;54.82
14383;BME280;7275;50.328;8.720;2022-12-26T09:21:44;99600.41;;;16.34;54.91
14383;BME280;7275;50.328;8.720;2022-12-26T09:24:14;99628.91;;;16.33;54.97
14383;BME280;7275;50.328;8.720;2022-12-26T09:26:42;99651.09;;;16.34;54.89
14383;BME280;7275;50.328;8.720;2022-12-26T09:29:11;99668.94;;;16.33;54.87
14383;BME280;7275;50.328;8.720;2022-12-26T09:31:40;99653.75;;;16.34;54.85
14383;BME280;7275;50.328;8.720;2022-12-26T09:34:08;99642.16;;;16.35;54.94
14383;BME280;7275;50.328;8.720;2022-12-26T09:36:37;99632.34;;;16.35;55.06
14383;BME280;7275;50.328;8.720;2022-12-26T09:39:05;99619.84;;;16.36;55.12
14383;BME280;7275;50.328;8.720;2022-12-26T09:41:53;99615.38;;;16.36;55.00
14383;BME280;7275;50.328;8.720;2022-12-26T09:44:26;99633.09;;;16.37;55.16
14383;BME280;7275;50.328;8.720;2022-12-26T09:47:05;99618.91;;;16.37;55.09
14383;BME280;7275;50.328;8.720;2022-12-26T09:49:37;99625.88;;;16.39;55.14
14383;BME280;7275;50.328;8.720;2022-12-26T09:52:11;99647.22;;;16.39;55.16
14383;BME280;7275;50.328;8.720;2022-12-26T09:54:43;99630.13;;;16.42;55.12
14383;BME280;7275;50.328;8.720;2022-12-26T09:57:17;99633.88;;;16.39;55.05
14383;BME280;7275;50.328;8.720;2022-12-26T09:59:50;99630.34;;;16.39;55.02
14383;BME280;7275;50.328;8.720;2022-12-26T10:02:21;99644.53;;;16.39;55.25
14383;BME280;7275;50.328;8.720;2022-12-26T10:04:50;99634.81;;;16.38;55.14
14383;BME280;7275;50.328;8.720;2022-12-26T10:07:22;99658.72;;;16.40;55.27
14383;BME280;7275;50.328;8.720;2022-12-26T10:10:07;99655.97;;;16.41;55.12
14383;BME280;7275;50.328;8.720;2022-12-26T10:12:38;99639.00;;;16.42;55.23
14383;BME280;7275;50.328;8.720;2022-12-26T10:15:30;99637.09;;;16.44;55.16
14383;BME280;7275;50.328;8.720;2022-12-26T10:18:10;99653.09;;;16.44;55.20
14383;BME280;7275;50.328;8.720;2022-12-26T10:20:50;99640.63;;;16.45;55.24
14383;BME280;7275;50.328;8.720;2022-12-26T10:23:30;99614.69;;;16.47;55.24
14383;BME280;7275;50.328;8.720;2022-12-26T10:26:03;99644.81;;;16.49;55.42
14383;BME280;7275;50.328;8.720;2022-12-26T10:28:34;99638.47;;;16.51;55.29
14383;BME280;7275;50.328;8.720;2022-12-26T10:31:09;99625.03;;;16.53;55.54
14383;BME280;7275;50.328;8.720;2022-12-26T10:33:45;99631.00;;;16.56;55.23
14383;BME280;7275;50.328;8.720;2022-12-26T10:36:28;99629.09;;;16.58;55.39
14383;BME280;7275;50.328;8.720;2022-12-26T10:38:57;99640.56;;;16.60;55.41
14383;BME280;7275;50.328;8.720;2022-12-26T10:41:30;99627.13;;;16.62;55.31
14383;BME280;7275;50.328;8.720;2022-12-26T10:44:00;99630.66;;;16.62;55.30
14383;BME280;7275;50.328;8.720;2022-12-26T10:46:49;99628.81;;;16.63;55.45
14383;BME280;7275;50.328;8.720;2022-12-26T10:49:23;99620.75;;;16.64;55.38
14383;BME280;7275;50.328;8.720;2022-12-26T10:51:53;99641.88;;;16.67;55.37
14383;BME280;7275;50.328;8.720;2022-12-26T10:54:21;99646.28;;;16.68;55.45
14383;BME280;7275;50.328;8.720;2022-12-26T10:56:50;99649.72;;;16.70;55.19
14383;BME280;7275;50.328;8.720;2022-12-26T10:59:20;99651.50;;;16.70;55.43
14383;BME280;7275;50.328;8.720;2022-12-26T11:01:48;99652.28;;;16.72;55.49
14383;BME280;7275;50.328;8.720;2022-12-26T11:04:19;99640.56;;;16.74;55.45
14383;BME280;7275;50.328;8.720;2022-12-26T11:07:10;99652.84;;;16.77;55.45
14383;BME280;7275;50.328;8.720;2022-12-26T11:09:41;99649.09;;;16.79;55.43
14383;BME280;7275;50.328;8.720;2022-12-26T11:12:18;99650.63;;;16.84;55.29
14383;BME280;7275;50.328;8.720;2022-12-26T11:14:47;99643.31;;;16.87;55.38
14383;BME280;7275;50.328;8.720;2022-12-26T11:17:24;99644.81;;;16.91;55.30
14383;BME280;7275;50.328;8.720;2022-12-26T11:23:29;99670.25;;;16.97;55.18
14383;BME280;7275;50.328;8.720;2022-12-26T11:25:59;99665.56;;;17.00;55.25
14383;BME280;7275;50.328;8.720;2022-12-26T11:28:30;99662.72;;;17.03;55.22
14383;BME280;7275;50.328;8.720;2022-12-26T11:30:59;99661.56;;;17.07;55.17
14383;BME280;7275;50.328;8.720;2022-12-26T11:33:29;99666.63;;;17.12;55.02
14383;BME280;7275;50.328;8.720;2022-12-26T11:36:05;99670.97;;;17.13;55.00
14383;BME280;7275;50.328;8.720;2022-12-26T11:38:44;99643.44;;;17.12;55.02
14383;BME280;7275;50.328;8.720;2022-12-26T11:41:18;99658.50;;;17.13;54.90
14383;BME280;7275;50.328;8.720;2022-12-26T11:44:02;99641.31;;;17.17;54.99
14383;BME280;7275;50.328;8.720;2022-12-26T11:46:33;99641.00;;;17.22;55.11
14383;BME280;7275;50.328;8.720;2022-12-26T11:49:03;99632.81;;;17.25;54.94
14383;BME280;7275;50.328;8.720;2022-12-26T11:51:33;99644.03;;;17.30;54.77
14383;BME280;7275;50.328;8.720;2022-12-26T11:54:19;99640.31;;;17.32;54.74
14383;BME280;7275;50.328;8.720;2022-12-26T11:56:48;99653.56;;;17.34;54.63
14383;BME280;7275;50.328;8.720;2022-12-26T11:59:18;99643.84;;;17.33;54.62
14383;BME280;7275;50.328;8.720;2022-12-26T12:01:49;99642.97;;;17.32;54.56
14383;BME280;7275;50.328;8.720;2022-12-26T12:04:36;99635.91;;;17.31;54.65
14383;BME280;7275;50.328;8.720;2022-12-26T12:07:08;99641.25;;;17.31;54.47
14383;BME280;7275;50.328;8.720;2022-12-26T12:09:46;99616.38;;;17.31;54.68
14383;BME280;7275;50.328;8.720;2022-12-26T12:12:21;99632.28;;;17.32;54.41
14383;BME280;7275;50.328;8.720;2022-12-26T12:14:58;99640.41;;;17.31;54.27
14383;BME280;7275;50.328;8.720;2022-12-26T12:17:34;99628.88;;;17.30;54.45
14383;BME280;7275;50.328;8.720;2022-12-26T12:20:16;99619.13;;;17.29;54.42
14383;BME280;7275;50.328;8.720;2022-12-26T12:23:08;99614.66;;;17.30;54.29
14383;BME280;7275;50.328;8.720;2022-12-26T12:25:49;99622.78;;;17.28;54.30
14383;BME280;7275;50.328;8.720;2022-12-26T12:28:32;99630.56;;;17.31;54.29
14383;BME280;7275;50.328;8.720;2022-12-26T12:31:06;99621.72;;;17.31;54.22
14383;BME280;7275;50.328;8.720;2022-12-26T12:33:48;99621.59;;;17.32;54.25
14383;BME280;7275;50.328;8.720;2022-12-26T12:36:23;99624.38;;;17.31;54.06
14383;BME280;7275;50.328;8.720;2022-12-26T12:39:01;99631.53;;;17.30;54.22
14383;BME280;7275;50.328;8.720;2022-12-26T12:41:51;99626.31;;;17.29;54.24
14383;BME280;7275;50.328;8.720;2022-12-26T12:44:26;99641.59;;;17.27;54.09
14383;BME280;7275;50.328;8.720;2022-12-26T12:47:04;99640.91;;;17.23;54.20
14383;BME280;7275;50.328;8.720;2022-12-26T12:49:52;99660.75;;;17.19;54.15
14383;BME280;7275;50.328;8.720;2022-12-26T12:52:36;99643.34;;;17.14;53.53
14383;BME280;7275;50.328;8.720;2022-12-26T12:55:24;99632.19;;;17.07;53.27
14383;BME280;7275;50.328;8.720;2022-12-26T12:57:59;99642.28;;;17.02;53.37
14383;BME280;7275;50.328;8.720;2022-12-26T13:00:37;99635.34;;;17.00;53.32
14383;BME280;7275;50.328;8.720;2022-12-26T13:03:09;99634.50;;;16.99;53.34
14383;BME280;7275;50.328;8.720;2022-12-26T13:05:42;99621.13;;;16.99;53.29
14383;BME280;7275;50.328;8.720;2022-12-26T13:08:14;99623.91;;;16.98;53.37
14383;BME280;7275;50.328;8.720;2022-12-26T13:10:47;99632.97;;;16.95;53.32
14383;BME280;7275;50.328;8.720;2022-12-26T13:13:27;99643.78;;;16.94;53.36
14383;BME280;7275;50.328;8.720;2022-12-26T13:16:00;99642.25;;;16.90;53.29
14383;BME280;7275;50.328;8.720;2022-12-26T13:18:34;99641.47;;;16.88;53.45
14383;BME280;7275;50.328;8.720;2022-12-26T13:21:05;99637.28;;;16.84;53.58
14383;BME280;7275;50.328;8.720;2022-12-26T13:23:38;99630.53;;;16.78;53.70
14383;BME280;7275;50.328;8.720;2022-12-26T13:26:28;99623.84;;;16.71;53.86
14383;BME280;7275;50.328;8.720;2022-12-26T13:29:02;99627.66;;;16.67;54.15
14383;BME280;7275;50.328;8.720;2022-12-26T13:31:31;99618.81;;;16.66;54.27
14383;BME280;7275;50.328;8.720;2022-12-26T13:34:00;99616.34;;;16.63;54.42
14383;BME280;7275;50.328;8.720;2022-12-26T13:36:41;99610.25;;;16.61;54.50
14383;BME280;7275;50.328;8.720;2022-12-26T13:39:30;99604.31;;;16.56;54.37
14383;BME280;7275;50.328;8.720;2022-12-26T13:42:03;99613.41;;;16.54;54.79
14383;BME280;7275;50.328;8.720;2022-12-26T13:44:50;99594.81;;;16.52;54.72
14383;BME280;7275;50.328;8.720;2022-12-26T13:47:30;99609.13;;;16.51;54.99
14383;BME280;7275;50.328;8.720;2022-12-26T13:50:44;99592.34;;;16.49;54.68
14383;BME280;7275;50.328;8.720;2022-12-26T13:53:27;99587.06;;;16.48;54.62
14383;BME280;7275;50.328;8.720;2022-12-26T13:55:57;99592.13;;;16.52;54.44
14383;BME280;7275;50.328;8.720;2022-12-26T13:58:36;99584.88;;;16.54;54.25